Time;durP1;ratioP1;P1;durP2;ratioP2;P2;SDS_P1;SDS_P2;PMS_P1;PMS_P2;Temp;Humidity;BMP_temperature;BMP_pressure;BME280_temperature;BME280_humidity;BME280_pressure;Samples;Min_cycle;Max_cycle;Signal;HPM_P1;HPM_P2
2022/03/30 00:00:47;;;;;;;;;55.25;44.00;;;;;13.21;64.79;99620.41;5080667;27;45616;-74
2022/03/30 00:03:12;;;;;;;;;59.25;46.50;;;;;13.20;65.33;99618.72;5080284;27;46177;-71
2022/03/30 00:05:38;;;;;;;;;57.25;46.00;;;;;13.17;65.53;99617.13;5079836;27;45373;-74
2022/03/30 00:08:05;;;;;;;;;58.50;46.50;;;;;13.14;65.62;99622.63;5077882;28;45366;-72
2022/03/30 00:10:31;;;;;;;;;57.00;47.00;;;;;13.03;66.13;99614.56;5077470;27;45366;-74
2022/03/30 00:12:56;;;;;;;;;54.75;45.00;;;;;12.97;66.02;99621.94;5075856;28;47287;-71
2022/03/30 00:15:24;;;;;;;;;60.00;48.00;;;;;12.93;66.12;99620.44;5077855;27;45484;-73
2022/03/30 00:17:50;;;;;;;;;62.00;48.00;;;;;12.86;66.45;99617.34;5060341;28;45266;-74
2022/03/30 00:20:16;;;;;;;;;59.25;47.00;;;;;12.81;67.55;99613.34;5060701;28;45249;-73
2022/03/30 00:22:41;;;;;;;;;57.50;45.25;;;;;12.75;67.41;99616.38;5078966;27;46162;-78
2022/03/30 00:25:09;;;;;;;;;56.75;45.25;;;;;12.70;67.85;99612.22;5079549;28;45204;-70
2022/03/30 00:27:35;;;;;;;;;57.75;46.50;;;;;12.65;68.08;99609.03;5059897;28;45413;-70
2022/03/30 00:30:01;;;;;;;;;58.00;46.25;;;;;12.59;69.48;99604.16;5079379;28;45410;-73
2022/03/30 00:32:26;;;;;;;;;54.25;43.25;;;;;12.51;68.91;99603.78;5078245;27;45335;-69
2022/03/30 00:34:52;;;;;;;;;60.25;49.00;;;;;12.42;69.16;99597.34;5077024;27;45395;-70
2022/03/30 00:37:18;;;;;;;;;59.25;48.25;;;;;12.39;69.60;99594.88;5077505;27;45341;-66
2022/03/30 00:39:43;;;;;;;;;62.75;49.50;;;;;12.35;69.55;99602.13;5078626;27;45323;-70
2022/03/30 00:42:16;;;;;;;;;64.75;49.50;;;;;12.32;69.90;99602.34;5077345;27;45409;-70
2022/03/30 00:44:46;;;;;;;;;61.75;49.00;;;;;12.31;69.28;99598.00;5059897;28;45443;-69
2022/03/30 00:47:16;;;;;;;;;63.50;49.50;;;;;12.32;70.08;99598.88;5077279;27;45225;-64
2022/03/30 00:49:41;;;;;;;;;68.25;51.25;;;;;12.32;70.03;99597.06;5078865;27;45417;-69
2022/03/30 00:52:07;;;;;;;;;68.75;53.75;;;;;12.34;69.31;99581.97;5076860;28;46171;-60
2022/03/30 00:54:34;;;;;;;;;66.50;51.75;;;;;12.37;69.47;99587.06;5077638;28;45327;-73
2022/03/30 00:57:00;;;;;;;;;66.25;49.00;;;;;12.40;69.47;99576.31;5082456;27;45327;-69
2022/03/30 00:59:25;;;;;;;;;62.00;47.75;;;;;12.41;69.45;99580.66;5081596;28;45371;-73
2022/03/30 01:01:51;;;;;;;;;63.00;48.75;;;;;12.42;69.46;99574.44;5082006;27;45480;-68
2022/03/30 01:04:16;;;;;;;;;63.00;50.00;;;;;12.41;69.21;99570.09;5079667;28;45271;-74
2022/03/30 01:06:41;;;;;;;;;63.75;50.25;;;;;12.39;69.23;99564.06;5080421;28;45278;-75
2022/03/30 01:09:07;;;;;;;;;67.75;52.00;;;;;12.40;69.11;99562.31;5079963;27;45502;-64
2022/03/30 01:11:32;;;;;;;;;61.50;48.75;;;;;12.41;68.89;99558.72;5079273;28;45359;-75
2022/03/30 01:13:59;;;;;;;;;68.25;53.00;;;;;12.37;69.33;99550.13;5081690;27;45508;-72
2022/03/30 01:16:25;;;;;;;;;64.25;50.25;;;;;12.40;69.70;99549.13;5082139;27;45445;-70
2022/03/30 01:19:01;;;;;;;;;68.25;52.25;;;;;12.38;69.49;99543.94;5080521;27;45264;-76
2022/03/30 01:21:27;;;;;;;;;68.00;52.75;;;;;12.33;69.56;99543.38;5080799;27;45407;-72
2022/03/30 01:23:52;;;;;;;;;69.00;54.00;;;;;12.29;70.29;99539.25;5079922;28;45350;-74
2022/03/30 01:26:17;;;;;;;;;64.50;51.75;;;;;12.29;70.15;99533.97;5080009;28;45361;-73
2022/03/30 01:28:43;;;;;;;;;66.50;52.25;;;;;12.27;70.31;99534.09;5079680;28;45636;-72
2022/03/30 01:33:53;;;;;;;;;64.00;51.50;;;;;12.24;70.95;99530.78;5080892;27;45453;-61
2022/03/30 01:36:18;;;;;;;;;67.75;52.75;;;;;12.25;70.95;99529.84;5064700;28;45375;-70
2022/03/30 01:38:44;;;;;;;;;64.25;50.25;;;;;12.24;70.78;99526.38;5082328;27;45149;-65
2022/03/30 01:41:10;;;;;;;;;63.75;50.25;;;;;12.23;71.16;99518.53;5081286;28;45337;-64
2022/03/30 01:43:35;;;;;;;;;69.75;52.75;;;;;12.20;71.15;99519.59;5063448;28;45311;-75
2022/03/30 01:46:01;;;;;;;;;66.00;51.25;;;;;12.21;70.60;99523.94;5081882;27;45365;-72
2022/03/30 01:48:27;;;;;;;;;67.75;53.50;;;;;12.22;70.82;99517.72;5081003;27;45593;-67
2022/03/30 01:50:52;;;;;;;;;67.25;51.75;;;;;12.21;70.84;99516.03;5078893;27;47197;-76
2022/03/30 01:53:18;;;;;;;;;65.50;52.50;;;;;12.19;71.02;99515.25;5080417;28;45277;-74
2022/03/30 01:55:44;;;;;;;;;68.75;53.00;;;;;12.19;71.28;99517.06;5063510;28;45293;-72
2022/03/30 01:58:10;;;;;;;;;65.25;50.25;;;;;12.18;70.69;99515.34;5081667;27;45326;-68
2022/03/30 02:00:35;;;;;;;;;67.25;51.25;;;;;12.17;71.12;99514.50;5080379;27;45308;-64
2022/03/30 02:03:01;;;;;;;;;63.75;49.50;;;;;12.16;71.24;99519.88;5084961;28;45315;-66
2022/03/30 02:05:26;;;;;;;;;69.25;53.50;;;;;12.12;71.21;99506.91;5083382;27;45368;-67
2022/03/30 02:07:51;;;;;;;;;69.75;53.00;;;;;12.11;71.02;99510.47;5081684;27;45611;-65
2022/03/30 02:10:17;;;;;;;;;67.50;52.50;;;;;12.10;71.06;99508.78;5081700;27;45485;-69
2022/03/30 02:12:43;;;;;;;;;72.25;54.25;;;;;12.08;71.14;99500.13;5083307;28;45421;-72
2022/03/30 02:15:10;;;;;;;;;65.25;50.50;;;;;12.11;71.01;99496.44;5080640;27;45181;-69
2022/03/30 02:17:37;;;;;;;;;64.50;50.50;;;;;12.05;71.17;99489.78;5062158;28;45547;-66
2022/03/30 02:20:03;;;;;;;;;66.00;49.25;;;;;12.08;70.92;99492.22;5080667;28;46297;-69
2022/03/30 02:22:28;;;;;;;;;64.25;48.50;;;;;12.07;71.00;99487.91;5080507;27;45296;-69
2022/03/30 02:24:54;;;;;;;;;70.25;51.00;;;;;12.04;71.30;99489.88;5081274;27;45366;-67
2022/03/30 02:27:20;;;;;;;;;63.75;51.50;;;;;12.00;71.38;99486.59;5081712;28;45283;-76
2022/03/30 02:29:47;;;;;;;;;69.50;52.25;;;;;11.94;71.40;99486.97;5083128;28;46122;-75
2022/03/30 02:32:13;;;;;;;;;68.00;53.25;;;;;11.89;71.74;99481.97;5082685;27;45438;-74
2022/03/30 02:34:38;;;;;;;;;66.50;52.75;;;;;11.83;71.64;99477.09;5078944;27;45359;-74
2022/03/30 02:37:04;;;;;;;;;65.25;53.25;;;;;11.75;72.07;99480.22;5078874;28;45565;-78
2022/03/30 02:39:29;;;;;;;;;65.50;50.75;;;;;11.66;72.66;99473.72;5077962;27;45404;-72
2022/03/30 02:41:55;;;;;;;;;67.50;53.50;;;;;11.60;73.28;99473.25;5078062;27;45177;-66
2022/03/30 02:44:21;;;;;;;;;63.00;47.75;;;;;11.53;73.00;99463.09;5060009;28;45448;-67
2022/03/30 02:46:46;;;;;;;;;67.50;53.50;;;;;11.49;72.98;99466.88;5078792;28;45239;-71
2022/03/30 02:49:12;;;;;;;;;74.00;55.00;;;;;11.47;73.83;99468.75;5078397;27;45575;-74
2022/03/30 02:51:38;;;;;;;;;71.75;52.75;;;;;11.42;73.86;99465.56;5078039;28;45314;-74
2022/03/30 02:54:04;;;;;;;;;70.25;53.50;;;;;11.40;73.98;99470.06;5078435;28;45385;-70
2022/03/30 02:56:29;;;;;;;;;71.00;54.25;;;;;11.37;74.20;99467.63;5079552;27;45302;-75
2022/03/30 02:58:55;;;;;;;;;68.00;53.75;;;;;11.33;74.45;99466.97;5078622;28;45374;-75
2022/03/30 03:01:20;;;;;;;;;67.50;52.75;;;;;11.35;74.46;99469.50;5078655;28;45457;-70
2022/03/30 03:03:46;;;;;;;;;70.25;55.50;;;;;11.37;74.45;99460.59;5078318;27;45415;-69
2022/03/30 03:06:12;;;;;;;;;77.50;62.50;;;;;11.41;74.69;99458.59;5079570;27;45331;-73
2022/03/30 03:08:38;;;;;;;;;73.50;56.25;;;;;11.42;74.66;99457.66;5079724;27;46397;-72
2022/03/30 03:11:03;;;;;;;;;69.00;54.50;;;;;11.46;74.39;99459.16;5079051;27;45232;-76
2022/03/30 03:13:29;;;;;;;;;72.50;55.50;;;;;11.50;74.54;99462.47;5078591;27;45373;-77
2022/03/30 03:15:54;;;;;;;;;72.75;59.50;;;;;11.49;74.13;99461.59;5077891;27;45216;-72
2022/03/30 03:18:20;;;;;;;;;77.00;63.00;;;;;11.55;74.12;99463.03;5076498;27;45378;-75
2022/03/30 03:20:47;;;;;;;;;77.00;57.33;;;;;11.54;75.08;99443.72;5078495;28;45199;-71
2022/03/30 03:23:13;;;;;;;;;74.00;56.75;;;;;11.56;74.30;99451.53;5079642;27;45391;-66
2022/03/30 03:25:40;;;;;;;;;75.00;60.33;;;;;11.60;74.55;99457.44;5079664;28;45530;-69
2022/03/30 03:28:08;;;;;;;;;76.75;59.00;;;;;11.61;74.28;99449.47;5062931;28;45641;-67
2022/03/30 03:30:34;;;;;;;;;70.75;55.75;;;;;11.65;73.89;99443.06;5078087;28;45169;-73
2022/03/30 03:33:01;;;;;;;;;70.75;55.00;;;;;11.66;74.57;99443.88;5077262;28;45236;-73
2022/03/30 03:35:27;;;;;;;;;72.50;56.25;;;;;11.68;73.91;99444.66;5078062;27;45614;-65
2022/03/30 03:37:52;;;;;;;;;69.50;53.50;;;;;11.73;74.65;99445.22;5077669;28;45393;-70
2022/03/30 03:40:18;;;;;;;;;71.50;55.50;;;;;11.75;73.88;99445.13;5078264;28;46083;-71
2022/03/30 03:42:44;;;;;;;;;76.00;61.75;;;;;11.73;74.34;99444.38;5077888;27;45509;-72
2022/03/30 03:45:11;;;;;;;;;78.00;58.33;;;;;11.69;74.49;99431.38;5080551;27;45388;-71
2022/03/30 03:47:36;;;;;;;;;69.75;56.00;;;;;11.69;74.59;99435.81;5081015;28;45301;-74
2022/03/30 03:50:02;;;;;;;;;70.50;55.00;;;;;11.62;75.45;99431.84;5077137;27;45391;-79
2022/03/30 03:52:28;;;;;;;;;74.75;60.00;;;;;11.56;75.63;99435.75;5078256;28;45438;-72
2022/03/30 03:54:54;;;;;;;;;70.75;55.75;;;;;11.54;75.22;99429.72;5078114;27;45273;-73
2022/03/30 03:57:19;;;;;;;;;74.25;57.50;;;;;11.55;74.79;99431.41;5077044;28;45389;-65
2022/03/30 03:59:44;;;;;;;;;76.50;59.00;;;;;11.58;74.96;99431.22;5076855;28;45418;-72
2022/03/30 04:02:10;;;;;;;;;71.75;57.00;;;;;11.62;75.10;99429.22;5059788;28;45234;-73
2022/03/30 04:04:37;;;;;;;;;72.50;54.75;;;;;11.64;75.31;99424.69;5079327;27;45268;-75
2022/03/30 04:07:04;;;;;;;;;74.50;55.50;;;;;11.66;74.72;99426.31;5077947;27;46766;-70
2022/03/30 04:09:30;;;;;;;;;70.75;56.25;;;;;11.69;75.24;99420.03;5076992;28;45666;-73
2022/03/30 04:11:55;;;;;;;;;65.25;51.75;;;;;11.74;74.79;99430.25;5077478;28;45305;-79
2022/03/30 04:14:20;;;;;;;;;72.25;54.00;;;;;11.77;74.98;99430.06;5077830;27;45390;-72
2022/03/30 04:16:47;;;;;;;;;72.75;57.50;;;;;11.77;74.54;99424.78;5058159;27;46200;-74
2022/03/30 04:19:13;;;;;;;;;67.50;53.75;;;;;11.77;74.76;99425.66;5076518;27;45281;-62
2022/03/30 04:21:39;;;;;;;;;69.25;52.50;;;;;11.76;74.82;99415.19;5077070;27;45375;-68
2022/03/30 04:24:04;;;;;;;;;73.25;55.25;;;;;11.76;74.43;99425.72;5078065;28;45639;-75
2022/03/30 04:26:30;;;;;;;;;71.50;55.25;;;;;11.77;74.36;99412.47;5077696;27;46550;-64
2022/03/30 04:28:55;;;;;;;;;69.50;54.25;;;;;11.79;74.43;99418.50;5077160;28;45257;-68
2022/03/30 04:31:20;;;;;;;;;68.50;55.00;;;;;11.81;74.30;99413.09;5076899;28;45280;-71
2022/03/30 04:33:46;;;;;;;;;69.00;54.75;;;;;11.84;73.66;99416.41;5076864;27;45530;-70
2022/03/30 04:36:11;;;;;;;;;68.75;53.50;;;;;11.89;73.69;99417.91;5076099;27;45927;-73
2022/03/30 04:38:37;;;;;;;;;66.75;53.00;;;;;11.92;74.13;99415.06;5079715;27;45144;-70
2022/03/30 04:41:03;;;;;;;;;70.00;54.25;;;;;11.93;73.53;99409.69;5081566;28;45232;-67
2022/03/30 04:43:28;;;;;;;;;66.75;53.75;;;;;11.97;73.76;99407.69;5079055;28;45339;-70
2022/03/30 04:45:55;;;;;;;;;69.00;53.75;;;;;11.98;73.31;99410.22;5076979;27;45813;-76
2022/03/30 04:48:22;;;;;;;;;72.00;56.25;;;;;11.99;73.28;99405.81;5076800;28;45431;-67
2022/03/30 04:50:48;;;;;;;;;72.00;56.75;;;;;11.98;73.29;99396.22;5058583;28;45312;-76
2022/03/30 04:53:13;;;;;;;;;71.75;55.25;;;;;12.01;73.47;99398.69;5077968;28;45579;-76
2022/03/30 04:55:39;;;;;;;;;75.00;60.50;;;;;12.04;73.32;99392.34;5060043;28;45455;-70
2022/03/30 04:58:05;;;;;;;;;74.00;56.25;;;;;12.05;73.69;99394.91;5077900;28;45260;-67
2022/03/30 05:00:32;;;;;;;;;77.67;62.33;;;;;12.08;72.83;99391.19;5078294;27;45418;-68
2022/03/30 05:02:58;;;;;;;;;73.00;58.50;;;;;12.10;73.10;99389.31;5062538;28;45282;-77
2022/03/30 05:05:23;;;;;;;;;72.75;53.25;;;;;12.11;72.86;99388.38;5079755;27;46333;-67
2022/03/30 05:07:49;;;;;;;;;73.00;58.25;;;;;12.12;73.13;99383.00;5079250;28;45449;-71
2022/03/30 05:10:15;;;;;;;;;70.00;54.50;;;;;12.15;72.99;99391.66;5079542;28;45488;-78
2022/03/30 05:12:41;;;;;;;;;70.50;54.50;;;;;12.15;72.57;99381.94;5083846;27;45641;-74
2022/03/30 05:15:11;;;;;;;;;74.50;58.50;;;;;12.18;72.92;99384.38;5065826;27;48190;-64
2022/03/30 05:17:38;;;;;;;;;71.75;58.50;;;;;12.19;72.28;99383.44;5078604;28;45308;-72
2022/03/30 05:20:05;;;;;;;;;74.50;59.25;;;;;12.19;72.09;99380.78;5061290;28;45307;-70
2022/03/30 05:22:31;;;;;;;;;77.00;58.25;;;;;12.21;72.30;99385.97;5062692;28;45305;-72
2022/03/30 05:24:56;;;;;;;;;72.75;55.50;;;;;12.21;72.09;99385.97;5077400;27;45373;-74
2022/03/30 05:27:22;;;;;;;;;71.75;56.00;;;;;12.22;72.00;99385.91;5078803;28;45197;-77
2022/03/30 05:29:47;;;;;;;;;70.50;55.50;;;;;12.24;72.31;99393.69;5080564;27;45629;-71
2022/03/30 05:32:13;;;;;;;;;70.25;56.00;;;;;12.25;72.30;99390.09;5083233;28;45524;-72
2022/03/30 05:34:38;;;;;;;;;70.25;55.25;;;;;12.29;72.55;99391.59;5080198;28;45315;-66
2022/03/30 05:37:03;;;;;;;;;66.75;52.50;;;;;12.28;72.83;99397.81;5078320;27;45335;-67
2022/03/30 05:39:31;;;;;;;;;67.00;53.50;;;;;12.24;73.11;99396.31;5078753;27;45362;-69
2022/03/30 05:41:56;;;;;;;;;68.50;54.00;;;;;12.19;72.93;99393.16;5079553;28;45485;-78
2022/03/30 05:44:21;;;;;;;;;73.00;56.25;;;;;12.16;73.28;99390.72;5081432;27;45481;-74
2022/03/30 05:46:47;;;;;;;;;66.75;51.25;;;;;12.11;73.82;99391.88;5080643;27;45469;-76
2022/03/30 05:49:12;;;;;;;;;73.00;57.00;;;;;12.11;74.15;99394.50;5081744;27;45378;-75
2022/03/30 05:51:38;;;;;;;;;70.00;54.00;;;;;12.04;73.97;99387.94;5081465;27;45496;-66
2022/03/30 05:54:04;;;;;;;;;70.50;54.75;;;;;12.10;73.77;99391.94;5079918;28;46216;-66
2022/03/30 05:59:15;;;;;;;;;76.00;53.75;;;;;12.12;73.86;99401.47;5082213;27;45302;-71
2022/03/30 06:01:41;;;;;;;;;65.00;52.50;;;;;12.12;74.12;99395.31;5082017;27;45330;-74
2022/03/30 06:04:06;;;;;;;;;70.00;54.75;;;;;12.09;74.05;99396.38;5081239;27;46445;-74
2022/03/30 06:06:32;;;;;;;;;71.50;54.50;;;;;12.09;74.58;99396.38;5079109;28;45354;-72
2022/03/30 06:08:57;;;;;;;;;71.25;54.50;;;;;12.08;74.97;99399.09;5060897;28;45385;-69
2022/03/30 06:11:23;;;;;;;;;72.75;57.25;;;;;12.05;75.47;99407.22;5079425;27;45278;-72
2022/03/30 06:13:48;;;;;;;;;67.75;54.50;;;;;12.01;76.52;99409.22;5079256;28;45371;-72
2022/03/30 06:16:15;;;;;;;;;73.75;56.50;;;;;11.97;76.68;99405.06;5079876;27;45459;-71
2022/03/30 06:18:43;;;;;;;;;77.00;60.50;;;;;11.96;77.18;99412.13;5080131;27;45291;-62
2022/03/30 06:21:09;;;;;;;;;72.00;58.00;;;;;11.97;77.93;99408.53;5083867;27;45558;-62
2022/03/30 06:23:35;;;;;;;;;71.75;56.50;;;;;11.95;77.12;99413.06;5083877;27;46101;-73
2022/03/30 06:26:01;;;;;;;;;73.50;56.75;;;;;11.87;77.27;99410.06;5066205;27;45517;-64
2022/03/30 06:28:29;;;;;;;;;70.50;57.25;;;;;11.84;77.45;99416.41;5078309;27;45319;-74
2022/03/30 06:30:55;;;;;;;;;73.75;57.25;;;;;11.80;77.59;99408.78;5078562;28;45616;-68
2022/03/30 06:33:20;;;;;;;;;75.00;56.25;;;;;11.82;77.27;99418.28;5077764;28;46417;-69
2022/03/30 06:35:46;;;;;;;;;59.25;45.75;;;;;11.82;77.69;99404.25;5078998;27;45296;-69
2022/03/30 06:38:11;;;;;;;;;73.50;58.50;;;;;11.82;77.45;99418.28;5077347;28;45192;-67
2022/03/30 06:40:37;;;;;;;;;75.00;55.75;;;;;11.81;77.78;99418.38;5078050;27;45213;-65
2022/03/30 06:43:03;;;;;;;;;75.75;60.25;;;;;11.79;77.67;99418.50;5078240;28;45223;-68
2022/03/30 06:45:28;;;;;;;;;77.50;62.00;;;;;11.74;77.62;99412.66;5071435;27;45904;-67
2022/03/30 06:47:54;;;;;;;;;70.00;55.00;;;;;11.71;78.36;99415.50;5055423;28;45380;-71
2022/03/30 06:50:20;;;;;;;;;73.50;58.25;;;;;11.72;77.85;99414.56;5054544;28;45525;-69
2022/03/30 06:52:48;;;;;;;;;72.00;55.75;;;;;11.71;78.36;99423.41;5054330;28;46195;-68
2022/03/30 06:55:14;;;;;;;;;72.50;58.00;;;;;11.70;78.20;99421.72;5056670;28;45372;-67
2022/03/30 06:57:41;;;;;;;;;72.67;55.00;;;;;11.73;77.91;99423.28;5056340;28;45457;-68
2022/03/30 07:00:07;;;;;;;;;74.00;55.00;;;;;11.76;78.02;99420.47;5068828;27;45414;-66
2022/03/30 07:02:33;;;;;;;;;77.00;60.00;;;;;11.77;77.64;99423.00;5056387;28;46398;-67
2022/03/30 07:04:59;;;;;;;;;75.25;57.50;;;;;11.77;77.57;99419.50;5063029;28;45369;-67
2022/03/30 07:10:15;;;;;;;;;76.00;60.00;;;;;11.76;77.18;99420.47;5059713;28;45772;-67
2022/03/30 07:12:40;;;;;;;;;74.00;55.33;;;;;11.74;76.95;99423.22;5056353;28;46222;-67
2022/03/30 07:15:07;;;;;;;;;71.25;56.00;;;;;11.74;77.20;99427.63;5056573;28;45217;-66
2022/03/30 07:17:33;;;;;;;;;74.00;57.00;;;;;11.75;77.37;99430.16;5056256;28;45257;-74
2022/03/30 07:19:59;;;;;;;;;69.50;55.50;;;;;11.73;77.39;99432.06;5038214;28;45299;-66
2022/03/30 07:22:24;;;;;;;;;78.67;64.67;;;;;11.75;78.10;99422.25;5038056;28;48298;-69
2022/03/30 07:24:50;;;;;;;;;70.50;55.75;;;;;11.78;77.69;99422.06;5055361;28;45325;-64
2022/03/30 07:27:16;;;;;;;;;65.25;52.50;;;;;11.79;77.84;99431.66;5056236;28;45378;-69
2022/03/30 07:29:41;;;;;;;;;76.00;61.33;;;;;11.77;79.44;99423.00;5055734;28;45427;-69
2022/03/30 07:32:07;;;;;;;;;74.25;58.50;;;;;11.74;81.20;99420.56;5036612;28;47122;-70
2022/03/30 07:34:33;;;;;;;;;65.67;53.33;;;;;11.64;82.32;99420.28;5055462;28;45366;-71
2022/03/30 07:36:59;;;;;;;;;77.67;66.00;;;;;11.57;84.11;99411.09;5055703;28;45522;-71
2022/03/30 07:39:25;;;;;;;;;74.33;57.33;;;;;11.50;84.77;99413.25;5056591;28;45391;-70
2022/03/30 07:41:50;;;;;;;;;77.00;62.00;;;;;11.44;83.16;99418.06;5056080;28;46086;-66
2022/03/30 07:44:16;;;;;;;;;78.33;64.33;;;;;11.33;83.28;99409.06;5056562;28;45334;-65
2022/03/30 07:46:41;;;;;;;;;73.00;58.67;;;;;11.26;82.86;99415.66;5056131;28;45483;-67
2022/03/30 07:49:07;;;;;;;;;82.33;64.00;;;;;11.15;83.17;99411.03;5056548;28;45268;-68
2022/03/30 07:51:32;;;;;;;;;79.33;70.00;;;;;11.03;85.56;99411.78;5056210;28;46055;-69
2022/03/30 07:53:57;;;;;;;;;82.00;68.67;;;;;10.93;89.67;99414.13;5055950;28;45334;-70
2022/03/30 07:56:23;;;;;;;;;84.00;71.33;;;;;10.87;91.35;99412.72;5055950;28;45372;-65
2022/03/30 07:58:49;;;;;;;;;84.33;77.00;;;;;10.87;93.26;99417.97;5056599;28;45477;-70
2022/03/30 08:01:18;;;;;;;;;88.33;72.67;;;;;10.85;95.48;99419.84;5056032;28;45442;-69
2022/03/30 08:03:45;;;;;;;;;82.67;74.33;;;;;10.87;96.84;99417.13;5055888;28;45427;-67
2022/03/30 08:06:12;;;;;;;;;109.00;100.00;;;;;10.84;98.08;99412.91;5056001;28;45360;-71
2022/03/30 08:08:37;;;;;;;;;91.67;87.33;;;;;10.87;98.99;99411.84;5056150;28;45432;-68
2022/03/30 08:11:03;;;;;;;;;96.33;87.00;;;;;10.92;99.42;99418.53;5055613;28;46384;-66
2022/03/30 08:13:28;;;;;;;;;90.33;77.33;;;;;10.95;99.98;99423.63;5056520;28;45370;-67
2022/03/30 08:15:54;;;;;;;;;96.33;81.67;;;;;10.96;99.28;99424.44;5056758;28;45253;-70
2022/03/30 08:18:19;;;;;;;;;83.00;72.00;;;;;10.93;97.32;99428.13;5021517;28;45678;-66
2022/03/30 08:23:28;;;;;;;;;89.33;78.00;;;;;10.94;96.74;99419.31;5055692;28;45348;-65
2022/03/30 08:25:54;;;;;;;;;91.00;81.33;;;;;11.04;96.63;99419.56;5056241;28;45517;-68
2022/03/30 08:28:19;;;;;;;;;95.67;78.67;;;;;11.12;96.08;99421.75;5056566;28;45554;-65
2022/03/30 08:30:45;;;;;;;;;83.67;72.00;;;;;11.12;94.60;99421.75;5037727;28;48268;-70
2022/03/30 08:33:10;;;;;;;;;82.00;70.33;;;;;11.14;94.19;99417.25;5055977;28;45356;-72
2022/03/30 08:35:36;;;;;;;;;79.33;68.33;;;;;11.13;92.46;99428.72;5055776;28;45374;-68
2022/03/30 08:38:02;;;;;;;;;80.67;65.33;;;;;11.06;91.71;99422.13;5056029;28;45357;-66
2022/03/30 08:40:28;;;;;;;;;83.00;71.00;;;;;11.02;91.43;99415.34;5037318;28;47201;-67
2022/03/30 08:42:55;;;;;;;;;96.33;86.33;;;;;11.07;92.65;99423.81;5037369;28;45490;-67
2022/03/30 08:45:20;;;;;;;;;97.33;86.67;;;;;11.06;93.29;99414.22;5056161;28;45367;-67
2022/03/30 08:47:46;;;;;;;;;91.33;78.33;;;;;11.02;93.23;99410.91;5055835;28;45217;-68
2022/03/30 08:50:12;;;;;;;;;85.33;77.33;;;;;10.93;94.41;99414.97;5055336;28;45937;-64
2022/03/30 08:52:37;;;;;;;;;91.33;80.33;;;;;10.80;95.36;99414.84;5037259;28;45497;-67
2022/03/30 08:55:04;;;;;;;;;86.00;72.33;;;;;10.65;96.46;99408.75;5055345;28;45985;-66
2022/03/30 08:57:29;;;;;;;;;89.33;77.33;;;;;10.51;97.65;99406.91;5055863;28;45533;-69
2022/03/30 09:00:08;;;;;;;;;99.33;87.33;;;;;10.34;98.37;99407.03;5055466;28;47275;-67
2022/03/30 09:02:34;;;;;;;;;91.33;82.33;;;;;10.19;100.00;99411.38;5037168;28;45440;-69
2022/03/30 09:05:20;;;;;;;;;104.00;92.33;;;;;10.12;100.00;99410.91;5055560;28;45289;-66
2022/03/30 09:07:51;;;;;;;;;98.00;85.00;;;;;10.15;100.00;99412.50;5037531;28;45240;-65
2022/03/30 09:10:19;;;;;;;;;102.67;87.67;;;;;10.25;100.00;99413.66;5054485;28;46344;-66
2022/03/30 09:12:50;;;;;;;;;110.67;96.00;;;;;10.34;100.00;99414.91;5054726;28;45387;-66
2022/03/30 09:15:20;;;;;;;;;96.67;88.33;;;;;10.35;100.00;99412.19;5036535;28;45355;-66
2022/03/30 09:17:46;;;;;;;;;103.67;90.67;;;;;10.41;100.00;99420.69;5058794;28;45560;-66
2022/03/30 09:20:20;;;;;;;;;105.67;94.00;;;;;10.49;100.00;99421.06;5040208;28;47978;-67
2022/03/30 09:22:51;;;;;;;;;114.33;96.67;;;;;10.53;100.00;99417.31;5059016;28;45441;-67
2022/03/30 09:25:18;;;;;;;;;116.33;102.00;;;;;10.53;100.00;99419.97;5058950;28;45586;-68
2022/03/30 09:27:46;;;;;;;;;100.33;87.67;;;;;10.63;100.00;99409.75;5059038;28;45899;-65
2022/03/30 09:30:17;;;;;;;;;104.33;88.67;;;;;10.73;100.00;99407.44;5040404;28;48153;-67
2022/03/30 09:32:46;;;;;;;;;110.00;98.00;;;;;10.84;100.00;99417.31;5058375;28;45423;-69
2022/03/30 09:35:28;;;;;;;;;110.67;94.67;;;;;10.94;100.00;99418.44;5058696;28;45441;-67
2022/03/30 09:38:12;;;;;;;;;110.67;99.00;;;;;11.12;100.00;99413.84;5059139;28;45344;-68
2022/03/30 09:40:47;;;;;;;;;109.67;93.33;;;;;11.18;100.00;99405.59;5058378;28;46952;-65
2022/03/30 09:43:23;;;;;;;;;124.33;102.33;;;;;11.33;100.00;99405.56;5058719;28;45509;-64
2022/03/30 09:46:08;;;;;;;;;114.00;102.33;;;;;11.45;100.00;99406.59;5058486;28;45377;-65
2022/03/30 09:48:38;;;;;;;;;116.67;103.67;;;;;11.59;100.00;99409.22;5058715;28;45406;-68
2022/03/30 09:51:06;;;;;;;;;107.00;96.33;;;;;11.64;100.00;99403.63;5057795;28;47085;-67
2022/03/30 09:53:33;;;;;;;;;91.67;82.00;;;;;11.75;100.00;99403.81;5057574;28;45478;-68
2022/03/30 09:56:06;;;;;;;;;89.00;76.33;;;;;11.85;100.00;99409.31;5058183;28;45450;-69
2022/03/30 09:58:37;;;;;;;;;97.00;81.33;;;;;11.81;100.00;99413.09;5057983;28;45325;-70
2022/03/30 10:01:04;;;;;;;;;97.00;83.67;;;;;11.94;100.00;99419.28;5039895;28;48167;-68
2022/03/30 10:03:46;;;;;;;;;101.67;83.67;;;;;12.11;100.00;99414.72;5058058;28;45361;-68
2022/03/30 10:06:14;;;;;;;;;87.00;78.67;;;;;12.24;100.00;99410.38;5058206;28;45466;-66
2022/03/30 10:08:44;;;;;;;;;89.67;79.00;;;;;12.32;100.00;99412.47;5039841;28;45653;-68
2022/03/30 10:11:12;;;;;;;;;82.00;66.67;;;;;12.27;100.00;99410.16;5057417;28;45406;-63
2022/03/30 10:13:38;;;;;;;;;77.50;65.00;;;;;12.22;100.00;99406.13;5039542;28;45529;-69
2022/03/30 10:16:08;;;;;;;;;81.67;63.67;;;;;12.24;100.00;99404.22;5057864;28;45328;-68
2022/03/30 10:18:35;;;;;;;;;88.00;78.67;;;;;12.33;100.00;99398.34;5057997;28;45378;-67
2022/03/30 10:21:34;;;;;;;;;80.33;66.33;;;;;12.61;100.00;99403.56;5057596;28;46745;-64
2022/03/30 10:24:09;;;;;;;;;79.00;66.00;;;;;12.82;100.00;99403.91;5039547;28;45485;-68
2022/03/30 10:26:48;;;;;;;;;76.67;63.67;;;;;12.95;96.33;99395.97;5039223;28;45536;-71
2022/03/30 10:29:16;;;;;;;;;78.00;63.67;;;;;13.06;96.12;99397.88;5039659;28;45348;-68
2022/03/30 10:32:02;;;;;;;;;75.75;61.00;;;;;13.08;91.39;99393.34;5038924;28;45500;-68
2022/03/30 10:34:28;;;;;;;;;80.67;70.33;;;;;13.19;93.54;99397.84;5058200;28;45257;-70
2022/03/30 10:37:09;;;;;;;;;80.67;72.33;;;;;13.41;94.14;99395.41;5058226;28;45293;-69
2022/03/30 10:39:53;;;;;;;;;85.67;75.00;;;;;13.70;90.97;99391.66;5058246;28;45399;-68
2022/03/30 10:42:18;;;;;;;;;78.50;60.50;;;;;13.81;87.64;99381.16;5057852;28;46492;-69
2022/03/30 10:44:58;;;;;;;;;77.50;62.25;;;;;13.99;89.79;99384.25;5057451;28;45345;-71
2022/03/30 10:47:27;;;;;;;;;72.75;56.00;;;;;14.20;89.50;99380.94;5056512;28;45303;-73
2022/03/30 10:49:55;;;;;;;;;72.50;58.50;;;;;14.40;88.56;99376.00;5057657;28;45449;-72
2022/03/30 10:52:23;;;;;;;;;71.50;56.00;;;;;14.64;86.73;99373.25;5056964;28;46393;-70
2022/03/30 10:54:54;;;;;;;;;81.00;65.50;;;;;14.79;89.54;99368.63;5057427;28;45545;-68
2022/03/30 10:57:57;;;;;;;;;73.75;59.00;;;;;15.09;86.86;99358.44;5057712;28;45460;-71
2022/03/30 11:00:27;;;;;;;;;77.75;62.75;;;;;15.31;87.01;99362.84;5057577;28;45672;-70
2022/03/30 11:03:14;;;;;;;;;75.25;61.50;;;;;15.50;86.01;99358.75;5057119;28;47581;-67
2022/03/30 11:05:44;;;;;;;;;76.50;62.75;;;;;15.74;88.15;99356.75;5057472;28;45514;-72
2022/03/30 11:08:32;;;;;;;;;76.75;55.00;;;;;15.84;86.02;99359.47;5057655;28;45347;-70
2022/03/30 11:11:00;;;;;;;;;65.75;51.00;;;;;16.00;82.63;99358.28;5039644;28;45347;-72
2022/03/30 11:13:26;;;;;;;;;69.50;52.75;;;;;16.09;82.63;99346.91;5056563;28;46715;-70
2022/03/30 11:15:59;;;;;;;;;63.75;50.00;;;;;16.12;82.02;99351.94;5038175;28;45315;-71
2022/03/30 11:18:26;;;;;;;;;63.25;48.00;;;;;15.99;81.64;99351.28;5056470;28;45382;-71
2022/03/30 11:21:12;;;;;;;;;67.25;50.50;;;;;15.94;82.61;99349.00;5056908;28;45418;-70
2022/03/30 11:23:38;;;;;;;;;73.00;55.25;;;;;15.95;80.17;99347.22;5056401;28;46593;-65
2022/03/30 11:26:04;;;;;;;;;71.00;53.50;;;;;15.94;81.72;99346.34;5056191;28;45390;-66